Time;durP1;ratioP1;P1;durP2;ratioP2;P2;SDS_P1;SDS_P2;PMS_P1;PMS_P2;Temp;Humidity;BMP_temperature;BMP_pressure;BME280_temperature;BME280_humidity;BME280_pressure;Samples;Min_cycle;Max_cycle;Signal;HPM_P1;HPM_P2
2022/08/15 00:01:35;;;;;;;3.97;2.57;;;27.10;7.20;;;;;;5063296;28;20497;-82
2022/08/15 00:04:12;;;;;;;2.27;2.17;;;27.20;6.50;;;;;;5069226;28;20454;-82
2022/08/15 00:07:00;;;;;;;2.70;2.50;;;27.10;8.50;;;;;;5069691;28;20524;-83
2022/08/15 00:09:29;;;;;;;3.30;3.07;;;27.10;8.50;;;;;;5065443;28;20479;-82
2022/08/15 00:12:19;;;;;;;2.67;2.37;;;27.00;8.80;;;;;;5068485;28;20540;-82
2022/08/15 00:15:04;;;;;;;2.83;2.60;;;27.00;6.70;;;;;;5069412;28;20505;-82
2022/08/15 00:17:36;;;;;;;2.70;2.50;;;27.10;5.30;;;;;;5069118;28;20462;-83
2022/08/15 00:20:18;;;;;;;2.40;2.20;;;27.10;6.10;;;;;;5069497;28;20476;-82
2022/08/15 00:23:00;;;;;;;2.67;2.47;;;27.00;6.20;;;;;;5069082;28;20478;-83
2022/08/15 00:25:29;;;;;;;2.60;2.40;;;27.00;6.20;;;;;;5069338;28;20541;-82
2022/08/15 00:28:05;;;;;;;2.30;2.20;;;27.00;6.10;;;;;;5058259;28;20455;-82
2022/08/15 00:30:35;;;;;;;2.50;2.20;;;26.70;2.90;;;;;;5068785;28;20461;-82
2022/08/15 00:33:24;;;;;;;3.27;2.30;;;26.60;3.40;;;;;;5059658;28;20465;-82
2022/08/15 00:35:56;;;;;;;3.27;2.77;;;26.50;4.80;;;;;;5068702;28;20818;-82
2022/08/15 00:38:45;;;;;;;3.07;2.77;;;26.60;6.00;;;;;;5069214;28;20547;-82
2022/08/15 00:44:08;;;;;;;2.57;2.37;;;26.80;6.20;;;;;;5062966;28;20458;-82
2022/08/15 00:46:38;;;;;;;2.77;2.57;;;26.80;6.50;;;;;;5068655;28;20450;-82
2022/08/15 00:49:09;;;;;;;3.30;2.93;;;26.60;16.10;;;;;;5067434;28;20446;-82
2022/08/15 00:51:44;;;;;;;4.00;3.10;;;26.60;5.30;;;;;;5066933;28;20470;-82
2022/08/15 00:54:27;;;;;;;2.47;2.37;;;26.60;5.40;;;;;;5064478;28;20446;-82
2022/08/15 00:57:18;;;;;;;3.00;2.40;;;26.60;5.90;;;;;;5060853;28;21173;-82
2022/08/15 01:00:13;;;;;;;3.10;2.40;;;26.70;7.20;;;;;;5071903;28;20458;-82
2022/08/15 01:03:03;;;;;;;2.73;2.53;;;26.60;6.10;;;;;;5064148;28;20485;-82
2022/08/15 01:05:32;;;;;;;2.80;2.60;;;26.50;6.80;;;;;;5071373;28;21310;-82
2022/08/15 01:08:01;;;;;;;2.57;2.37;;;26.50;7.10;;;;;;5073059;28;20443;-82
2022/08/15 01:10:34;;;;;;;2.80;2.60;;;26.40;6.90;;;;;;5072482;28;20471;-82
2022/08/15 01:13:04;;;;;;;3.33;3.03;;;26.30;6.70;;;;;;5072180;28;21113;-82
2022/08/15 01:15:54;;;;;;;3.43;3.13;;;26.10;5.20;;;;;;5072232;28;20997;-82
2022/08/15 01:18:25;;;;;;;2.67;2.27;;;25.80;7.00;;;;;;5063613;28;20505;-82
2022/08/15 01:21:10;;;;;;;3.87;2.60;;;25.80;7.20;;;;;;5073088;28;20438;-82
2022/08/15 01:23:53;;;;;;;4.47;2.30;;;25.80;6.00;;;;;;5072311;28;20478;-82
2022/08/15 01:26:26;;;;;;;2.90;2.70;;;25.90;8.20;;;;;;5072092;28;20450;-82
2022/08/15 01:29:11;;;;;;;2.40;2.20;;;25.90;7.90;;;;;;5061166;28;20440;-82
2022/08/15 01:31:45;;;;;;;4.47;2.80;;;26.00;10.20;;;;;;5070252;28;20451;-82
2022/08/15 01:34:17;;;;;;;2.77;2.30;;;25.90;10.10;;;;;;5061848;28;21043;-82
2022/08/15 01:36:48;;;;;;;2.70;2.30;;;25.70;8.50;;;;;;5059193;28;20486;-82
2022/08/15 01:39:28;;;;;;;3.23;2.50;;;25.70;9.80;;;;;;5072668;28;20500;-83
2022/08/15 01:42:08;;;;;;;2.57;2.10;;;25.70;10.40;;;;;;5072199;28;20553;-82
2022/08/15 01:44:41;;;;;;;3.40;2.70;;;25.60;9.50;;;;;;5071715;28;20462;-82
2022/08/15 01:47:32;;;;;;;2.73;2.00;;;25.60;10.30;;;;;;5071117;28;21283;-83
2022/08/15 01:50:08;;;;;;;15.33;2.57;;;25.50;11.10;;;;;;5071992;28;20458;-83
2022/08/15 01:52:44;;;;;;;2.90;2.23;;;25.60;11.80;;;;;;5069857;28;20462;-82
2022/08/15 01:55:37;;;;;;;6.63;2.27;;;25.70;12.30;;;;;;5071887;28;20453;-83
2022/08/15 01:58:22;;;;;;;3.87;2.60;;;25.50;11.60;;;;;;5071930;28;20538;-82
2022/08/15 02:00:52;;;;;;;2.30;2.10;;;25.50;11.80;;;;;;5068656;28;20969;-82
2022/08/15 02:03:21;;;;;;;2.40;2.20;;;25.50;13.20;;;;;;5061884;28;20478;-83
2022/08/15 02:05:50;;;;;;;3.07;2.87;;;25.70;14.60;;;;;;5069676;28;20466;-83
2022/08/15 02:08:25;;;;;;;3.00;1.80;;;25.70;15.30;;;;;;5067623;28;20550;-83
2022/08/15 02:11:05;;;;;;;4.20;2.60;;;25.80;17.20;;;;;;5058917;28;20449;-82
2022/08/15 02:13:54;;;;;;;2.40;2.20;;;25.90;21.60;;;;;;5070302;28;20565;-82
2022/08/15 02:16:24;;;;;;;2.27;2.07;;;26.00;16.50;;;;;;5071613;28;20510;-82
2022/08/15 02:18:53;;;;;;;2.23;2.00;;;25.90;16.70;;;;;;5071574;28;20450;-82
2022/08/15 02:21:26;;;;;;;2.23;2.10;;;25.90;18.10;;;;;;5071158;28;20792;-81
2022/08/15 02:24:07;;;;;;;3.33;2.50;;;25.90;19.00;;;;;;5071591;28;20465;-82
2022/08/15 02:26:49;;;;;;;2.43;1.93;;;26.10;17.60;;;;;;5058621;28;20522;-82
2022/08/15 02:29:21;;;;;;;2.10;2.00;;;26.10;17.90;;;;;;5071353;28;20465;-83
2022/08/15 02:31:53;;;;;;;3.00;2.40;;;26.00;18.00;;;;;;5066940;28;21021;-82
2022/08/15 02:34:24;;;;;;;2.17;2.00;;;26.00;17.80;;;;;;5071003;28;20487;-81
2022/08/15 02:37:18;;;;;;;2.90;2.03;;;26.00;18.30;;;;;;5071169;28;20532;-82
2022/08/15 02:39:52;;;;;;;2.90;2.70;;;25.90;18.80;;;;;;5071566;28;21232;-82
2022/08/15 02:42:26;;;;;;;2.33;2.07;;;25.90;18.60;;;;;;5066399;28;20489;-82
2022/08/15 02:44:56;;;;;;;2.70;2.50;;;25.60;17.30;;;;;;5064909;28;20482;-82
2022/08/15 02:47:25;;;;;;;2.60;2.40;;;25.50;18.30;;;;;;5061704;28;20494;-83
2022/08/15 02:49:54;;;;;;;3.30;2.00;;;25.50;18.50;;;;;;5069768;28;20509;-82
2022/08/15 02:52:22;;;;;;;2.80;2.20;;;25.40;20.10;;;;;;5068685;28;20621;-81
2022/08/15 02:54:51;;;;;;;4.00;2.77;;;25.40;20.70;;;;;;5070722;28;20454;-82
2022/08/15 02:57:31;;;;;;;3.30;2.40;;;25.40;20.10;;;;;;5070484;28;20470;-84
2022/08/15 03:00:22;;;;;;;2.50;2.30;;;25.40;21.30;;;;;;5058275;28;20882;-82
2022/08/15 03:02:58;;;;;;;2.43;2.20;;;25.50;24.60;;;;;;5065788;28;20527;-82
2022/08/15 03:05:29;;;;;;;2.83;2.40;;;25.60;24.70;;;;;;5070586;28;20447;-82
2022/08/15 03:07:58;;;;;;;4.03;2.10;;;25.70;25.00;;;;;;5068881;28;20446;-82
2022/08/15 03:10:28;;;;;;;2.43;2.23;;;25.50;25.00;;;;;;5070406;28;20446;-82
2022/08/15 03:13:01;;;;;;;2.90;1.90;;;25.40;27.40;;;;;;5069503;28;20479;-82
2022/08/15 03:15:38;;;;;;;2.33;2.10;;;25.30;28.50;;;;;;5070117;28;20847;-82
2022/08/15 03:18:08;;;;;;;2.10;1.87;;;25.40;29.90;;;;;;5055372;28;20478;-82
2022/08/15 03:20:39;;;;;;;2.80;2.30;;;25.30;47.70;;;;;;5070434;28;20878;-82
2022/08/15 03:23:12;;;;;;;3.00;2.47;;;25.30;37.20;;;;;;5070709;28;20481;-82
2022/08/15 03:25:43;;;;;;;3.50;2.30;;;25.20;40.10;;;;;;5068489;28;20446;-82
2022/08/15 03:28:18;;;;;;;2.83;1.67;;;25.20;43.90;;;;;;5070645;28;20454;-82
2022/08/15 03:30:58;;;;;;;2.10;2.00;;;25.10;48.90;;;;;;5070227;28;20462;-82
2022/08/15 03:33:28;;;;;;;2.70;2.00;;;25.10;50.00;;;;;;5065809;28;20459;-82
2022/08/15 03:36:18;;;;;;;2.00;1.80;;;24.90;51.50;;;;;;5055702;28;21057;-83
2022/08/15 03:38:51;;;;;;;2.13;1.93;;;24.80;53.00;;;;;;5070623;28;21006;-82
2022/08/15 03:41:25;;;;;;;3.50;2.00;;;24.80;54.90;;;;;;5070504;28;20454;-82
2022/08/15 03:43:54;;;;;;;2.03;1.87;;;24.80;56.50;;;;;;5061960;28;20992;-83
2022/08/15 03:46:26;;;;;;;2.00;1.80;;;24.80;59.30;;;;;;5069276;28;20985;-82
2022/08/15 03:48:57;;;;;;;1.70;1.60;;;24.90;60.10;;;;;;5068627;28;21784;-82
2022/08/15 03:51:28;;;;;;;4.50;2.23;;;24.80;55.80;;;;;;5068889;28;20500;-82
2022/08/15 03:54:00;;;;;;;1.83;1.70;;;24.80;58.20;;;;;;5055455;28;20470;-82
2022/08/15 03:56:31;;;;;;;1.60;1.50;;;24.80;54.70;;;;;;5064976;28;20443;-83
2022/08/15 03:59:01;;;;;;;2.57;1.70;;;24.80;52.90;;;;;;5069210;28;20486;-82
2022/08/15 04:01:35;;;;;;;1.73;1.47;;;24.70;51.10;;;;;;5063913;28;20498;-82
2022/08/15 04:04:04;;;;;;;1.60;1.50;;;24.80;50.40;;;;;;5064998;28;20467;-82
2022/08/15 04:06:33;;;;;;;1.70;1.60;;;24.70;48.80;;;;;;5055534;28;20862;-82
2022/08/15 04:09:01;;;;;;;3.10;2.30;;;24.40;48.10;;;;;;5055151;28;20450;-82
2022/08/15 04:11:41;;;;;;;1.80;1.70;;;24.40;49.30;;;;;;5057087;28;20487;-82
2022/08/15 04:14:10;;;;;;;2.40;1.73;;;24.40;48.00;;;;;;5059705;28;20530;-82
2022/08/15 04:17:00;;;;;;;5.23;1.70;;;24.40;49.40;;;;;;5056586;28;20455;-82
2022/08/15 04:19:46;;;;;;;2.20;1.60;;;24.30;51.40;;;;;;5060332;28;20472;-82
2022/08/15 04:22:18;;;;;;;2.00;1.63;;;24.40;51.20;;;;;;5069084;28;20462;-82
2022/08/15 04:25:10;;;;;;;2.80;1.63;;;24.50;49.30;;;;;;5063804;28;20858;-82
2022/08/15 04:27:47;;;;;;;1.83;1.73;;;24.60;53.20;;;;;;5059702;28;20443;-82
2022/08/15 04:30:22;;;;;;;1.83;1.73;;;24.60;53.70;;;;;;5071046;28;20454;-82
2022/08/15 04:32:54;;;;;;;2.03;1.83;;;24.70;55.60;;;;;;5060708;28;20784;-82
2022/08/15 04:35:45;;;;;;;2.10;1.60;;;24.70;56.30;;;;;;5060075;28;20530;-83
2022/08/15 04:38:15;;;;;;;2.00;1.60;;;24.70;53.70;;;;;;5067581;28;20791;-82
2022/08/15 04:40:44;;;;;;;1.83;1.60;;;24.70;54.80;;;;;;5072646;28;20461;-82
2022/08/15 04:43:34;;;;;;;1.97;1.60;;;24.30;52.50;;;;;;5064629;28;20489;-82
2022/08/15 04:46:04;;;;;;;2.23;1.70;;;24.10;58.40;;;;;;5065365;28;20430;-82
2022/08/15 04:48:33;;;;;;;1.90;1.80;;;24.30;58.70;;;;;;5071172;28;20438;-83
2022/08/15 04:51:04;;;;;;;2.03;1.80;;;24.40;58.40;;;;;;5061690;28;20987;-82
2022/08/15 04:53:35;;;;;;;1.50;1.40;;;24.30;56.60;;;;;;5069365;28;20523;-82
2022/08/15 04:56:06;;;;;;;2.33;1.90;;;24.30;57.90;;;;;;5052918;28;20439;-82
2022/08/15 04:58:55;;;;;;;1.80;1.70;;;24.40;59.10;;;;;;5056899;28;20511;-82
2022/08/15 05:01:33;;;;;;;1.53;1.43;;;24.40;59.60;;;;;;5068045;28;20847;-82
2022/08/15 05:04:23;;;;;;;1.67;1.57;;;24.50;59.10;;;;;;5055717;28;20439;-82
2022/08/15 05:06:53;;;;;;;1.50;1.40;;;24.60;58.20;;;;;;5058858;28;20442;-82
2022/08/15 05:09:21;;;;;;;1.40;1.30;;;24.70;57.70;;;;;;5067823;28;20539;-82
2022/08/15 05:11:51;;;;;;;4.07;1.77;;;24.50;54.20;;;;;;5054651;28;20455;-82
2022/08/15 05:14:36;;;;;;;1.63;1.53;;;24.30;54.40;;;;;;5060650;28;20462;-84
2022/08/15 05:17:16;;;;;;;1.50;1.40;;;24.20;55.70;;;;;;5054742;28;20450;-82
2022/08/15 05:19:51;;;;;;;1.47;1.37;;;23.90;60.10;;;;;;5071280;28;20595;-82
2022/08/15 05:22:20;;;;;;;1.60;1.47;;;23.90;63.70;;;;;;5072559;28;20477;-82
2022/08/15 05:25:04;;;;;;;1.50;1.40;;;24.10;69.80;;;;;;5072505;28;20442;-82
2022/08/15 05:27:36;;;;;;;2.00;1.80;;;24.10;65.60;;;;;;5071361;28;20442;-83
2022/08/15 05:30:12;;;;;;;1.40;1.30;;;24.20;69.30;;;;;;5062813;28;20441;-83
2022/08/15 05:32:45;;;;;;;2.10;1.50;;;24.20;62.20;;;;;;5067896;28;20478;-83
2022/08/15 05:35:18;;;;;;;1.50;1.40;;;24.00;68.00;;;;;;5071771;28;21016;-82
2022/08/15 05:37:46;;;;;;;1.40;1.30;;;24.10;71.30;;;;;;5071605;28;20446;-83
2022/08/15 05:40:18;;;;;;;1.40;1.30;;;24.20;90.90;;;;;;5069704;28;20465;-82
2022/08/15 05:43:00;;;;;;;1.90;1.23;;;24.10;71.80;;;;;;5071733;28;20568;-82
2022/08/15 05:45:36;;;;;;;1.40;1.30;;;24.10;69.10;;;;;;5071924;28;20451;-82
2022/08/15 05:48:15;;;;;;;1.60;1.33;;;24.10;69.60;;;;;;5070267;28;20453;-81
2022/08/15 05:50:53;;;;;;;1.40;1.30;;;24.00;68.30;;;;;;5067790;28;20544;-82
2022/08/15 05:53:32;;;;;;;1.40;1.30;;;24.10;70.00;;;;;;5055295;28;20459;-83
2022/08/15 05:56:06;;;;;;;1.30;1.20;;;24.00;64.20;;;;;;5055345;28;20648;-82
2022/08/15 05:58:42;;;;;;;2.37;1.30;;;23.90;67.20;;;;;;5069904;28;20496;-82
2022/08/15 06:01:17;;;;;;;1.23;1.13;;;23.60;67.40;;;;;;5071849;28;20453;-82
2022/08/15 06:03:55;;;;;;;4.10;1.17;;;23.80;71.80;;;;;;5071402;28;20501;-83
2022/08/15 06:06:30;;;;;;;1.40;1.20;;;23.90;69.50;;;;;;5068283;28;20446;-82
2022/08/15 06:09:31;;;;;;;1.37;1.27;;;23.90;65.90;;;;;;5071593;28;20455;-82
2022/08/15 06:12:15;;;;;;;1.70;1.30;;;23.90;64.00;;;;;;5070329;28;20901;-84
2022/08/15 06:14:58;;;;;;;1.20;1.10;;;23.90;65.30;;;;;;5071204;28;20446;-83
2022/08/15 06:17:32;;;;;;;3.03;1.60;;;24.10;66.00;;;;;;5070715;28;20489;-83
2022/08/15 06:20:05;;;;;;;1.30;1.20;;;24.00;64.30;;;;;;5071117;28;20486;-82
2022/08/15 06:23:05;;;;;;;1.60;1.50;;;24.10;64.30;;;;;;5067453;28;21028;-82
2022/08/15 06:25:42;;;;;;;1.70;1.30;;;24.10;61.10;;;;;;5094391;28;20454;-83
2022/08/15 06:28:28;;;;;;;1.40;1.30;;;24.00;61.40;;;;;;5070019;28;20486;-84
2022/08/15 06:31:21;;;;;;;1.50;1.40;;;24.00;66.00;;;;;;5071054;28;20449;-84
2022/08/15 06:33:57;;;;;;;1.60;1.50;;;24.10;63.50;;;;;;5069071;28;20565;-82
2022/08/15 06:36:41;;;;;;;1.30;1.20;;;24.20;63.50;;;;;;5058166;28;20448;-82
2022/08/15 06:39:21;;;;;;;1.57;1.40;;;24.30;67.20;;;;;;5058382;28;20474;-83
2022/08/15 06:41:58;;;;;;;3.30;1.53;;;24.50;66.10;;;;;;5069275;28;20457;-82
2022/08/15 06:44:29;;;;;;;1.50;1.40;;;24.70;66.40;;;;;;5069930;28;20466;-82
2022/08/15 06:47:03;;;;;;;1.30;1.20;;;25.00;67.00;;;;;;5068266;28;20457;-82
2022/08/15 06:49:37;;;;;;;1.60;1.50;;;25.10;68.50;;;;;;5069392;28;20439;-82
2022/08/15 06:52:06;;;;;;;2.00;1.80;;;25.40;64.60;;;;;;5066918;28;20902;-82
2022/08/15 06:54:45;;;;;;;2.03;1.30;;;25.60;84.00;;;;;;5066444;28;20459;-82
2022/08/15 06:57:23;;;;;;;4.83;1.60;;;25.80;64.90;;;;;;5052528;28;20466;-83
2022/08/15 07:00:01;;;;;;;1.90;1.20;;;26.00;65.30;;;;;;5064749;28;20569;-82
2022/08/15 07:02:43;;;;;;;1.60;1.43;;;26.20;61.70;;;;;;5068453;28;20474;-83
2022/08/15 07:05:17;;;;;;;2.17;1.40;;;26.40;60.30;;;;;;5068444;28;20431;-83
2022/08/15 07:08:02;;;;;;;1.53;1.30;;;26.60;62.10;;;;;;5069360;28;20499;-82
2022/08/15 07:10:40;;;;;;;2.07;1.27;;;26.70;59.30;;;;;;5070217;28;20966;-82
2022/08/15 07:13:20;;;;;;;1.50;1.33;;;26.90;58.80;;;;;;5069645;28;20485;-83
2022/08/15 07:15:56;;;;;;;1.77;1.20;;;27.00;59.10;;;;;;5067710;28;20559;-82
2022/08/15 07:18:34;;;;;;;1.30;1.20;;;26.80;53.60;;;;;;5070311;28;20483;-82
2022/08/15 07:21:06;;;;;;;1.50;1.40;;;26.70;51.70;;;;;;5069844;28;20521;-83
2022/08/15 07:24:08;;;;;;;1.53;1.43;;;26.80;54.00;;;;;;5069903;28;20455;-82
2022/08/15 07:27:06;;;;;;;2.07;1.03;;;26.90;53.70;;;;;;5064373;28;20441;-82
2022/08/15 07:29:44;;;;;;;1.73;1.10;;;27.10;55.80;;;;;;5068405;28;20453;-82
2022/08/15 07:32:28;;;;;;;1.43;1.30;;;27.10;55.30;;;;;;5059435;28;20470;-82
2022/08/15 07:35:16;;;;;;;1.60;1.00;;;27.30;56.00;;;;;;5069616;28;20455;-82
2022/08/15 07:37:56;;;;;;;1.20;1.10;;;27.30;54.40;;;;;;5070248;28;20438;-82
2022/08/15 07:40:29;;;;;;;1.43;0.97;;;27.10;50.90;;;;;;5069739;28;20486;-82
2022/08/15 07:43:05;;;;;;;1.27;1.17;;;27.00;50.40;;;;;;5068637;28;20484;-82
2022/08/15 07:45:36;;;;;;;1.30;1.20;;;26.90;50.00;;;;;;5069567;28;20530;-82
2022/08/15 07:48:26;;;;;;;1.20;0.97;;;26.80;48.00;;;;;;5066592;28;20451;-82
2022/08/15 07:51:05;;;;;;;2.10;1.07;;;26.80;47.80;;;;;;5058230;28;20962;-82
2022/08/15 07:53:51;;;;;;;2.27;1.00;;;26.80;47.90;;;;;;5069435;28;20482;-82
2022/08/15 07:56:24;;;;;;;1.10;1.00;;;26.70;45.80;;;;;;5065670;28;20451;-82
2022/08/15 07:59:20;;;;;;;2.40;1.33;;;26.60;47.00;;;;;;5069435;28;21001;-82
2022/08/15 08:01:55;;;;;;;1.23;1.00;;;26.60;45.90;;;;;;5068962;28;20454;-82
2022/08/15 08:04:28;;;;;;;1.17;0.90;;;26.60;46.30;;;;;;5069340;28;20492;-82
2022/08/15 08:07:00;;;;;;;1.83;1.00;;;26.70;48.70;;;;;;5068857;28;20454;-82
2022/08/15 08:09:39;;;;;;;1.20;1.10;;;26.70;47.90;;;;;;5069266;28;20549;-82
2022/08/15 08:12:21;;;;;;;1.20;1.03;;;26.70;45.30;;;;;;5069089;28;20478;-82
2022/08/15 08:15:18;;;;;;;1.20;1.10;;;26.70;45.20;;;;;;5068871;28;20481;-82
2022/08/15 08:18:12;;;;;;;1.00;0.90;;;26.80;45.30;;;;;;5055895;28;20459;-82
2022/08/15 08:21:05;;;;;;;1.20;1.10;;;26.80;43.80;;;;;;5069452;28;20576;-82
2022/08/15 08:23:42;;;;;;;0.90;0.90;;;26.80;46.20;;;;;;5059688;28;20462;-83
2022/08/15 08:26:25;;;;;;;0.90;0.90;;;26.80;44.20;;;;;;5059989;28;20455;-82
2022/08/15 08:29:07;;;;;;;1.50;1.10;;;26.90;43.40;;;;;;5055715;28;20450;-82
2022/08/15 08:31:48;;;;;;;1.20;1.00;;;26.90;44.40;;;;;;5068948;28;21111;-82
2022/08/15 08:34:32;;;;;;;1.30;1.20;;;26.90;45.80;;;;;;5069221;28;20450;-82
2022/08/15 08:37:26;;;;;;;1.10;1.00;;;26.80;40.60;;;;;;5069053;28;20466;-82
2022/08/15 08:41:24;;;;;;;1.70;1.10;;;26.80;41.00;;;;;;5061869;28;20479;-82
2022/08/15 08:43:00;;;;;;;1.00;1.00;;;26.90;41.00;;;;;;5067620;28;20526;-82
2022/08/15 08:45:44;;;;;;;0.90;0.90;;;26.90;42.00;;;;;;5068276;28;20845;-82
2022/08/15 08:48:32;;;;;;;1.27;0.90;;;26.90;39.40;;;;;;5068094;28;20455;-82
2022/08/15 08:51:08;;;;;;;1.00;1.00;;;27.00;40.10;;;;;;5068545;28;20982;-82
2022/08/15 08:53:45;;;;;;;1.17;1.07;;;27.10;41.30;;;;;;5068694;28;20477;-82
2022/08/15 08:56:23;;;;;;;1.87;1.00;;;27.20;42.40;;;;;;5065947;28;21159;-82
2022/08/15 08:59:09;;;;;;;0.80;0.80;;;27.30;57.80;;;;;;5069058;28;20455;-82
2022/08/15 09:01:41;;;;;;;0.90;0.90;;;27.30;40.40;;;;;;5069085;28;20577;-82
2022/08/15 09:04:16;;;;;;;1.00;1.00;;;27.30;39.30;;;;;;5068933;28;20857;-82
2022/08/15 09:06:48;;;;;;;1.43;1.10;;;27.30;39.10;;;;;;5068454;28;20454;-82
2022/08/15 09:09:25;;;;;;;0.97;0.93;;;27.30;38.30;;;;;;5068755;28;20462;-83
2022/08/15 09:11:58;;;;;;;1.27;1.20;;;27.30;38.80;;;;;;5068226;28;20833;-83
2022/08/15 09:14:32;;;;;;;1.10;0.90;;;27.30;37.60;;;;;;5061083;28;21057;-82
2022/08/15 09:17:24;;;;;;;1.20;1.10;;;27.30;38.40;;;;;;5059194;28;20519;-83
2022/08/15 09:20:05;;;;;;;1.20;1.20;;;27.30;37.50;;;;;;5059697;28;21015;-82
2022/08/15 09:22:39;;;;;;;1.57;0.93;;;27.40;38.40;;;;;;5068322;28;20997;-82
2022/08/15 09:25:09;;;;;;;1.70;1.20;;;27.40;40.60;;;;;;5057449;28;20443;-82
2022/08/15 09:27:47;;;;;;;1.20;1.10;;;27.50;37.30;;;;;;5062962;28;20529;-82
2022/08/15 09:30:26;;;;;;;1.20;0.90;;;27.50;36.70;;;;;;5067908;28;20454;-82
2022/08/15 09:33:35;;;;;;;1.60;1.10;;;27.50;37.40;;;;;;5059592;28;20477;-82
2022/08/15 09:36:37;;;;;;;1.20;1.10;;;27.60;37.30;;;;;;5070561;28;20463;-82
2022/08/15 09:39:23;;;;;;;1.43;1.03;;;27.70;37.50;;;;;;5057863;28;20458;-82
2022/08/15 09:42:02;;;;;;;1.10;1.10;;;27.70;37.40;;;;;;5071327;28;20482;-82
2022/08/15 09:45:08;;;;;;;1.07;1.03;;;27.80;37.30;;;;;;5071946;28;20458;-82
2022/08/15 09:48:00;;;;;;;1.33;1.20;;;27.80;36.30;;;;;;5068757;28;20443;-81
2022/08/15 09:50:57;;;;;;;1.40;1.30;;;27.80;35.30;;;;;;5071811;28;20430;-81
2022/08/15 09:53:37;;;;;;;1.20;1.10;;;27.80;34.10;;;;;;5071888;28;20490;-82
2022/08/15 09:56:22;;;;;;;1.33;1.23;;;27.80;35.00;;;;;;5070180;28;20549;-82
2022/08/15 09:59:04;;;;;;;1.57;1.20;;;27.80;37.40;;;;;;5071919;28;20461;-82
2022/08/15 10:01:45;;;;;;;1.53;1.43;;;27.80;36.70;;;;;;5071986;28;20490;-82
2022/08/15 10:04:41;;;;;;;1.30;1.20;;;27.90;37.60;;;;;;5067171;28;20461;-82
2022/08/15 10:07:42;;;;;;;1.30;1.20;;;27.90;35.50;;;;;;5068803;28;20553;-82
2022/08/15 10:10:20;;;;;;;2.67;1.20;;;27.90;35.60;;;;;;5070239;28;20884;-82
2022/08/15 10:13:13;;;;;;;1.20;1.10;;;28.00;36.30;;;;;;5070955;28;20481;-82
2022/08/15 10:15:45;;;;;;;1.30;1.20;;;28.00;33.80;;;;;;5071203;28;20490;-82
2022/08/15 10:18:55;;;;;;;1.40;1.30;;;28.00;33.10;;;;;;5071421;28;20874;-82
2022/08/15 10:21:33;;;;;;;1.43;1.00;;;27.90;32.20;;;;;;5066062;28;20475;-82
2022/08/15 10:24:07;;;;;;;1.60;1.30;;;27.90;33.70;;;;;;5057485;28;20465;-81
2022/08/15 10:27:22;;;;;;;1.30;1.20;;;27.90;32.30;;;;;;5080206;28;20486;-82
2022/08/15 10:30:10;;;;;;;1.30;1.20;;;28.00;33.10;;;;;;5066437;28;20447;-81
2022/08/15 10:33:00;;;;;;;2.40;1.30;;;28.00;31.50;;;;;;5071247;28;20481;-82
2022/08/15 10:35:45;;;;;;;1.13;1.13;;;28.10;33.80;;;;;;5069361;28;20446;-82
2022/08/15 10:38:20;;;;;;;1.30;1.20;;;28.10;33.20;;;;;;5067373;28;20554;-82
2022/08/15 10:41:10;;;;;;;1.30;1.20;;;27.60;32.90;;;;;;5062111;28;20482;-82
2022/08/15 10:43:55;;;;;;;1.40;1.30;;;28.20;33.50;;;;;;5070308;28;20475;-82
2022/08/15 10:46:42;;;;;;;1.40;1.30;;;28.30;32.00;;;;;;5070213;28;20496;-82
2022/08/15 10:49:25;;;;;;;1.50;1.40;;;28.30;31.30;;;;;;5070258;28;20458;-82
2022/08/15 10:52:20;;;;;;;1.20;1.10;;;28.30;32.00;;;;;;5070279;28;20450;-82
2022/08/15 10:55:17;;;;;;;1.20;1.10;;;28.30;31.30;;;;;;5066133;28;21096;-82
2022/08/15 10:58:18;;;;;;;1.40;1.30;;;28.30;32.30;;;;;;5067737;28;20447;-82
2022/08/15 11:00:51;;;;;;;1.57;1.27;;;28.30;32.30;;;;;;5070071;28;20479;-82
2022/08/15 11:03:27;;;;;;;1.70;1.43;;;28.30;31.90;;;;;;5068854;28;20499;-82
2022/08/15 11:06:20;;;;;;;1.30;1.20;;;28.30;31.30;;;;;;5069990;28;20459;-82
2022/08/15 11:08:58;;;;;;;1.70;1.40;;;28.40;32.90;;;;;;5070260;28;20446;-82
2022/08/15 11:11:32;;;;;;;1.40;1.30;;;28.40;33.20;;;;;;5069848;28;20447;-82
2022/08/15 11:14:11;;;;;;;1.47;1.33;;;28.50;33.10;;;;;;5067475;28;20486;-82
2022/08/15 11:17:00;;;;;;;1.20;1.10;;;28.50;35.60;;;;;;5069812;28;20450;-82
2022/08/15 11:19:32;;;;;;;1.33;1.13;;;28.60;35.40;;;;;;5069441;28;20459;-82
2022/08/15 11:22:34;;;;;;;2.47;2.20;;;28.70;34.90;;;;;;5067527;28;20532;-82
2022/08/15 11:25:11;;;;;;;1.57;1.47;;;28.70;35.20;;;;;;5064312;28;20553;-81
2022/08/15 11:27:40;;;;;;;1.83;1.70;;;28.70;32.40;;;;;;5065140;28;20454;-82
2022/08/15 11:30:21;;;;;;;2.37;2.03;;;28.70;35.30;;;;;;5059110;28;20459;-82
2022/08/15 11:32:52;;;;;;;2.87;1.53;;;28.70;32.70;;;;;;5056962;28;20462;-82
2022/08/15 11:35:26;;;;;;;1.70;1.60;;;28.70;33.20;;;;;;5069272;28;20444;-82
2022/08/15 11:37:57;;;;;;;1.47;1.37;;;28.60;32.90;;;;;;5068716;28;20446;-81
2022/08/15 11:40:30;;;;;;;1.47;1.30;;;28.60;32.10;;;;;;5069178;28;20474;-82
2022/08/15 11:43:01;;;;;;;1.90;1.80;;;28.60;31.00;;;;;;5069368;28;20489;-82
2022/08/15 11:45:45;;;;;;;1.80;1.70;;;28.70;31.30;;;;;;5069654;28;20454;-82
2022/08/15 11:48:25;;;;;;;1.40;1.30;;;28.70;31.80;;;;;;5069089;28;20486;-82
2022/08/15 11:51:08;;;;;;;1.20;1.10;;;28.70;33.20;;;;;;5068680;28;20815;-82
2022/08/15 11:53:41;;;;;;;1.67;1.57;;;28.70;31.60;;;;;;5069555;28;20558;-81
2022/08/15 11:56:10;;;;;;;1.27;1.17;;;28.70;33.60;;;;;;5069233;28;20454;-82
2022/08/15 11:58:52;;;;;;;1.50;1.40;;;28.80;34.30;;;;;;5069256;28;20450;-82
2022/08/15 12:01:33;;;;;;;1.40;1.20;;;28.80;35.70;;;;;;5068943;28;20698;-82
2022/08/15 12:04:08;;;;;;;1.40;1.30;;;28.80;36.00;;;;;;5066829;28;20957;-82
2022/08/15 12:06:57;;;;;;;1.30;1.20;;;28.80;34.20;;;;;;5068532;28;20474;-82
2022/08/15 12:09:28;;;;;;;3.50;1.50;;;28.80;36.70;;;;;;5069403;28;20457;-82
2022/08/15 12:12:28;;;;;;;1.23;1.13;;;28.90;35.50;;;;;;5056417;28;20470;-81
2022/08/15 12:15:10;;;;;;;2.10;1.60;;;28.90;32.40;;;;;;5068934;28;21039;-82
2022/08/15 12:18:08;;;;;;;1.90;1.80;;;28.90;32.00;;;;;;5068844;28;20499;-82
2022/08/15 12:21:07;;;;;;;1.87;1.70;;;28.90;32.30;;;;;;5067922;28;20500;-83
2022/08/15 12:23:44;;;;;;;1.40;1.17;;;28.90;32.20;;;;;;5056581;28;20536;-82
2022/08/15 12:26:18;;;;;;;1.40;1.30;;;28.90;33.80;;;;;;5067819;28;20593;-82
2022/08/15 12:29:07;;;;;;;1.67;1.33;;;28.90;33.20;;;;;;5063410;28;20446;-82
2022/08/15 12:31:41;;;;;;;1.70;1.60;;;28.90;32.20;;;;;;5068967;28;20965;-81
2022/08/15 12:34:14;;;;;;;1.50;1.40;;;28.90;31.10;;;;;;5068082;28;20533;-82
2022/08/15 12:37:00;;;;;;;1.50;1.40;;;28.90;30.30;;;;;;5067585;28;20533;-82
2022/08/15 12:39:35;;;;;;;2.50;1.30;;;28.90;30.50;;;;;;5066478;28;20559;-82
2022/08/15 12:42:08;;;;;;;2.37;1.50;;;28.90;30.00;;;;;;5068409;28;21020;-82
2022/08/15 12:44:59;;;;;;;1.53;1.43;;;28.90;30.50;;;;;;5058975;28;20454;-82
2022/08/15 12:47:29;;;;;;;1.20;1.10;;;28.80;30.40;;;;;;5068831;28;21206;-82
2022/08/15 12:50:02;;;;;;;1.47;1.37;;;28.80;31.40;;;;;;5071054;28;20508;-83
2022/08/15 12:52:36;;;;;;;2.20;1.60;;;28.80;31.90;;;;;;5071516;28;20460;-82
2022/08/15 12:55:05;;;;;;;2.00;1.70;;;28.90;32.10;;;;;;5062379;28;20454;-81
2022/08/15 12:57:38;;;;;;;1.50;1.40;;;28.80;31.00;;;;;;5072204;28;20972;-82
2022/08/15 13:00:20;;;;;;;1.73;1.47;;;28.90;32.70;;;;;;5070709;28;21222;-82
2022/08/15 13:03:17;;;;;;;2.00;1.80;;;28.90;32.10;;;;;;5070984;28;21002;-82
2022/08/15 13:06:00;;;;;;;1.80;1.70;;;28.90;30.40;;;;;;5072502;28;20840;-82
2022/08/15 13:08:49;;;;;;;1.30;1.20;;;28.80;30.00;;;;;;5072484;28;20442;-82
2022/08/15 13:11:21;;;;;;;1.70;1.60;;;28.80;32.10;;;;;;5067451;28;20501;-81
2022/08/15 13:13:50;;;;;;;2.20;1.90;;;28.90;31.90;;;;;;5072491;28;20553;-81
2022/08/15 13:16:22;;;;;;;1.60;1.50;;;28.80;30.60;;;;;;5072275;28;20454;-82
2022/08/15 13:19:14;;;;;;;1.50;1.40;;;28.80;30.80;;;;;;5072042;28;20998;-82
2022/08/15 13:24:58;;;;;;;1.50;1.40;;;28.80;33.30;;;;;;5070336;28;20458;-81
2022/08/15 13:27:29;;;;;;;1.43;1.33;;;28.80;39.00;;;;;;5072231;28;20435;-82
2022/08/15 13:29:58;;;;;;;1.93;1.30;;;28.80;41.50;;;;;;5070818;28;20483;-82
2022/08/15 13:32:31;;;;;;;2.90;1.97;;;28.80;43.20;;;;;;5072466;28;20555;-82
2022/08/15 13:34:59;;;;;;;1.70;1.60;;;28.80;44.30;;;;;;5071834;28;20545;-82
2022/08/15 13:37:37;;;;;;;1.60;1.50;;;28.80;49.60;;;;;;5072372;28;20799;-82
2022/08/15 13:40:25;;;;;;;1.60;1.50;;;28.90;49.80;;;;;;5071447;28;20470;-82
2022/08/15 13:42:59;;;;;;;1.93;1.63;;;28.90;52.30;;;;;;5071465;28;20490;-82
2022/08/15 13:45:39;;;;;;;2.00;1.30;;;28.90;48.90;;;;;;5068859;28;20460;-82
2022/08/15 13:48:34;;;;;;;2.60;1.40;;;28.90;49.70;;;;;;5069192;28;20474;-82
2022/08/15 13:51:08;;;;;;;1.97;1.33;;;28.90;47.60;;;;;;5071268;28;20451;-82
2022/08/15 13:53:41;;;;;;;1.80;1.70;;;28.90;45.80;;;;;;5072259;28;20477;-82
2022/08/15 13:56:31;;;;;;;1.80;1.60;;;28.90;47.20;;;;;;5071614;28;20454;-82